sensor_id;sensor_type;location;lat;lon;timestamp;P1;durP1;ratioP1;P2;durP2;ratioP2
30173;SDS011;16985;50.814;8.530;2022-09-12T00:01:04;5.28;;;3.55;;
30173;SDS011;16985;50.814;8.530;2022-09-12T00:03:52;4.13;;;3.63;;
30173;SDS011;16985;50.814;8.530;2022-09-12T00:06:21;6.25;;;3.42;;
30173;SDS011;16985;50.814;8.530;2022-09-12T00:08:58;4.53;;;3.58;;
30173;SDS011;16985;50.814;8.530;2022-09-12T00:11:37;5.28;;;3.80;;
30173;SDS011;16985;50.814;8.530;2022-09-12T00:14:06;3.90;;;3.47;;
30173;SDS011;16985;50.814;8.530;2022-09-12T00:16:36;6.13;;;3.83;;
30173;SDS011;16985;50.814;8.530;2022-09-12T00:19:04;4.28;;;3.65;;
30173;SDS011;16985;50.814;8.530;2022-09-12T00:21:34;4.32;;;3.75;;
30173;SDS011;16985;50.814;8.530;2022-09-12T00:24:02;7.50;;;4.05;;
30173;SDS011;16985;50.814;8.530;2022-09-12T00:26:28;5.22;;;4.13;;
30173;SDS011;16985;50.814;8.530;2022-09-12T00:28:55;4.55;;;4.00;;
30173;SDS011;16985;50.814;8.530;2022-09-12T00:31:21;5.05;;;3.75;;
30173;SDS011;16985;50.814;8.530;2022-09-12T00:33:50;4.93;;;3.70;;
30173;SDS011;16985;50.814;8.530;2022-09-12T00:36:20;6.10;;;4.22;;
30173;SDS011;16985;50.814;8.530;2022-09-12T00:38:48;4.75;;;3.72;;
30173;SDS011;16985;50.814;8.530;2022-09-12T00:41:16;6.50;;;3.90;;
30173;SDS011;16985;50.814;8.530;2022-09-12T00:43:45;4.75;;;4.25;;
30173;SDS011;16985;50.814;8.530;2022-09-12T00:46:30;7.10;;;4.38;;
30173;SDS011;16985;50.814;8.530;2022-09-12T00:54:31;5.43;;;4.25;;
30173;SDS011;16985;50.814;8.530;2022-09-12T00:57:03;5.22;;;3.42;;
30173;SDS011;16985;50.814;8.530;2022-09-12T00:59:40;3.88;;;3.40;;
30173;SDS011;16985;50.814;8.530;2022-09-12T01:02:57;4.68;;;3.60;;
30173;SDS011;16985;50.814;8.530;2022-09-12T01:05:27;5.30;;;3.80;;
30173;SDS011;16985;50.814;8.530;2022-09-12T01:07:55;7.35;;;4.07;;
30173;SDS011;16985;50.814;8.530;2022-09-12T01:10:22;4.82;;;3.70;;
30173;SDS011;16985;50.814;8.530;2022-09-12T01:12:51;5.03;;;3.97;;
30173;SDS011;16985;50.814;8.530;2022-09-12T01:15:18;6.03;;;4.35;;
30173;SDS011;16985;50.814;8.530;2022-09-12T01:17:53;5.00;;;4.07;;
30173;SDS011;16985;50.814;8.530;2022-09-12T01:20:49;5.22;;;4.10;;
30173;SDS011;16985;50.814;8.530;2022-09-12T01:26:40;6.65;;;4.38;;
30173;SDS011;16985;50.814;8.530;2022-09-12T01:29:37;6.07;;;4.60;;
30173;SDS011;16985;50.814;8.530;2022-09-12T01:36:01;6.57;;;5.25;;
30173;SDS011;16985;50.814;8.530;2022-09-12T01:38:34;6.55;;;5.32;;
30173;SDS011;16985;50.814;8.530;2022-09-12T01:44:37;5.82;;;5.07;;
30173;SDS011;16985;50.814;8.530;2022-09-12T01:50:17;7.70;;;5.47;;
30173;SDS011;16985;50.814;8.530;2022-09-12T01:55:37;6.50;;;5.38;;
30173;SDS011;16985;50.814;8.530;2022-09-12T02:01:06;5.30;;;4.72;;
30173;SDS011;16985;50.814;8.530;2022-09-12T02:03:42;6.80;;;5.32;;
30173;SDS011;16985;50.814;8.530;2022-09-12T02:09:14;11.18;;;5.20;;
30173;SDS011;16985;50.814;8.530;2022-09-12T02:12:06;7.53;;;4.75;;
30173;SDS011;16985;50.814;8.530;2022-09-12T02:14:39;8.05;;;5.15;;
30173;SDS011;16985;50.814;8.530;2022-09-12T02:17:12;7.45;;;5.70;;
30173;SDS011;16985;50.814;8.530;2022-09-12T02:19:53;6.03;;;4.32;;
30173;SDS011;16985;50.814;8.530;2022-09-12T02:22:26;5.80;;;5.05;;
30173;SDS011;16985;50.814;8.530;2022-09-12T02:24:55;6.35;;;5.38;;
30173;SDS011;16985;50.814;8.530;2022-09-12T02:27:26;6.70;;;4.55;;
30173;SDS011;16985;50.814;8.530;2022-09-12T02:30:08;5.93;;;4.85;;
30173;SDS011;16985;50.814;8.530;2022-09-12T02:32:40;5.60;;;4.15;;
30173;SDS011;16985;50.814;8.530;2022-09-12T02:35:47;6.43;;;4.80;;
30173;SDS011;16985;50.814;8.530;2022-09-12T02:38:23;5.32;;;4.50;;
30173;SDS011;16985;50.814;8.530;2022-09-12T02:41:08;8.32;;;4.72;;
30173;SDS011;16985;50.814;8.530;2022-09-12T02:43:35;4.82;;;4.07;;
30173;SDS011;16985;50.814;8.530;2022-09-12T02:46:02;4.60;;;4.13;;
30173;SDS011;16985;50.814;8.530;2022-09-12T02:48:33;5.47;;;4.10;;
30173;SDS011;16985;50.814;8.530;2022-09-12T02:51:03;5.03;;;4.05;;
30173;SDS011;16985;50.814;8.530;2022-09-12T02:53:30;4.90;;;3.65;;
30173;SDS011;16985;50.814;8.530;2022-09-12T02:55:56;5.30;;;3.90;;
30173;SDS011;16985;50.814;8.530;2022-09-12T02:58:23;4.13;;;3.60;;
30173;SDS011;16985;50.814;8.530;2022-09-12T03:18:08;3.72;;;3.20;;
30173;SDS011;16985;50.814;8.530;2022-09-12T03:26:11;4.00;;;3.40;;
30173;SDS011;16985;50.814;8.530;2022-09-12T03:28:45;4.38;;;3.75;;
30173;SDS011;16985;50.814;8.530;2022-09-12T03:31:15;3.10;;;2.80;;
30173;SDS011;16985;50.814;8.530;2022-09-12T03:33:43;3.47;;;3.15;;
30173;SDS011;16985;50.814;8.530;2022-09-12T03:36:18;3.95;;;2.83;;
30173;SDS011;16985;50.814;8.530;2022-09-12T03:38:47;3.55;;;3.00;;
30173;SDS011;16985;50.814;8.530;2022-09-12T03:41:13;3.05;;;2.75;;
30173;SDS011;16985;50.814;8.530;2022-09-12T03:43:39;4.43;;;3.42;;
30173;SDS011;16985;50.814;8.530;2022-09-12T03:46:04;3.17;;;2.88;;
30173;SDS011;16985;50.814;8.530;2022-09-12T03:48:30;3.50;;;3.20;;
30173;SDS011;16985;50.814;8.530;2022-09-12T03:51:00;4.00;;;3.42;;
30173;SDS011;16985;50.814;8.530;2022-09-12T03:53:31;3.50;;;3.20;;
30173;SDS011;16985;50.814;8.530;2022-09-12T03:55:57;4.05;;;2.90;;
30173;SDS011;16985;50.814;8.530;2022-09-12T03:58:23;3.20;;;2.90;;
30173;SDS011;16985;50.814;8.530;2022-09-12T04:00:55;3.65;;;3.33;;
30173;SDS011;16985;50.814;8.530;2022-09-12T04:03:20;4.53;;;3.47;;
30173;SDS011;16985;50.814;8.530;2022-09-12T04:05:46;3.30;;;3.00;;
30173;SDS011;16985;50.814;8.530;2022-09-12T04:08:13;3.13;;;2.83;;
30173;SDS011;16985;50.814;8.530;2022-09-12T04:10:39;4.60;;;4.20;;
30173;SDS011;16985;50.814;8.530;2022-09-12T04:13:05;3.70;;;3.30;;
30173;SDS011;16985;50.814;8.530;2022-09-12T04:15:30;4.13;;;3.67;;
30173;SDS011;16985;50.814;8.530;2022-09-12T04:17:56;5.95;;;3.65;;
30173;SDS011;16985;50.814;8.530;2022-09-12T04:20:22;4.90;;;3.33;;
30173;SDS011;16985;50.814;8.530;2022-09-12T04:22:48;4.15;;;3.40;;
30173;SDS011;16985;50.814;8.530;2022-09-12T04:25:14;4.32;;;3.90;;
30173;SDS011;16985;50.814;8.530;2022-09-12T04:27:41;4.50;;;3.20;;
30173;SDS011;16985;50.814;8.530;2022-09-12T04:30:07;3.72;;;3.35;;
30173;SDS011;16985;50.814;8.530;2022-09-12T04:32:33;4.45;;;3.83;;
30173;SDS011;16985;50.814;8.530;2022-09-12T04:34:59;4.18;;;3.78;;
30173;SDS011;16985;50.814;8.530;2022-09-12T04:37:26;3.75;;;3.38;;
30173;SDS011;16985;50.814;8.530;2022-09-12T04:39:51;3.53;;;3.20;;
30173;SDS011;16985;50.814;8.530;2022-09-12T04:42:21;4.22;;;3.42;;
30173;SDS011;16985;50.814;8.530;2022-09-12T04:44:48;3.42;;;3.13;;
30173;SDS011;16985;50.814;8.530;2022-09-12T04:47:14;3.53;;;3.22;;
30173;SDS011;16985;50.814;8.530;2022-09-12T04:49:40;3.50;;;3.20;;
30173;SDS011;16985;50.814;8.530;2022-09-12T04:52:06;3.38;;;3.08;;
30173;SDS011;16985;50.814;8.530;2022-09-12T04:54:32;3.38;;;3.08;;
30173;SDS011;16985;50.814;8.530;2022-09-12T04:56:58;3.83;;;3.53;;
30173;SDS011;16985;50.814;8.530;2022-09-12T04:59:24;3.95;;;3.08;;
30173;SDS011;16985;50.814;8.530;2022-09-12T05:01:50;3.55;;;3.25;;
30173;SDS011;16985;50.814;8.530;2022-09-12T05:04:16;3.55;;;3.20;;
30173;SDS011;16985;50.814;8.530;2022-09-12T05:06:42;3.67;;;3.38;;
30173;SDS011;16985;50.814;8.530;2022-09-12T05:09:09;3.90;;;3.35;;
30173;SDS011;16985;50.814;8.530;2022-09-12T05:11:39;3.55;;;3.25;;
30173;SDS011;16985;50.814;8.530;2022-09-12T05:14:07;3.90;;;3.50;;
30173;SDS011;16985;50.814;8.530;2022-09-12T05:16:34;3.60;;;3.30;;
30173;SDS011;16985;50.814;8.530;2022-09-12T05:19:00;3.50;;;3.20;;
30173;SDS011;16985;50.814;8.530;2022-09-12T05:21:26;5.45;;;3.28;;
30173;SDS011;16985;50.814;8.530;2022-09-12T05:23:52;3.38;;;2.97;;
30173;SDS011;16985;50.814;8.530;2022-09-12T05:26:20;3.33;;;3.03;;
30173;SDS011;16985;50.814;8.530;2022-09-12T05:28:47;3.70;;;3.20;;
30173;SDS011;16985;50.814;8.530;2022-09-12T05:33:51;2.53;;;2.33;;
30173;SDS011;16985;50.814;8.530;2022-09-12T05:36:20;3.10;;;2.80;;
30173;SDS011;16985;50.814;8.530;2022-09-12T05:38:49;4.78;;;2.80;;
30173;SDS011;16985;50.814;8.530;2022-09-12T05:41:17;3.35;;;2.67;;
30173;SDS011;16985;50.814;8.530;2022-09-12T05:43:45;4.65;;;3.53;;
30173;SDS011;16985;50.814;8.530;2022-09-12T05:46:19;3.80;;;3.33;;
30173;SDS011;16985;50.814;8.530;2022-09-12T05:51:15;4.13;;;2.80;;
30173;SDS011;16985;50.814;8.530;2022-09-12T05:53:54;3.08;;;2.78;;
30173;SDS011;16985;50.814;8.530;2022-09-12T05:56:23;4.63;;;2.95;;
30173;SDS011;16985;50.814;8.530;2022-09-12T05:58:52;3.45;;;3.08;;
30173;SDS011;16985;50.814;8.530;2022-09-12T06:01:23;3.92;;;3.28;;
30173;SDS011;16985;50.814;8.530;2022-09-12T06:03:53;2.88;;;2.55;;
30173;SDS011;16985;50.814;8.530;2022-09-12T06:06:22;3.20;;;2.88;;
30173;SDS011;16985;50.814;8.530;2022-09-12T06:08:50;3.60;;;2.83;;
30173;SDS011;16985;50.814;8.530;2022-09-12T06:11:23;3.60;;;3.08;;
30173;SDS011;16985;50.814;8.530;2022-09-12T06:13:52;4.15;;;3.47;;
30173;SDS011;16985;50.814;8.530;2022-09-12T06:16:23;4.80;;;3.53;;
30173;SDS011;16985;50.814;8.530;2022-09-12T06:18:59;4.68;;;3.97;;
30173;SDS011;16985;50.814;8.530;2022-09-12T06:21:27;4.95;;;3.85;;
30173;SDS011;16985;50.814;8.530;2022-09-12T06:23:55;8.60;;;4.57;;
30173;SDS011;16985;50.814;8.530;2022-09-12T06:26:25;5.88;;;4.22;;
30173;SDS011;16985;50.814;8.530;2022-09-12T06:28:54;7.40;;;4.05;;
30173;SDS011;16985;50.814;8.530;2022-09-12T06:31:22;5.25;;;4.20;;
30173;SDS011;16985;50.814;8.530;2022-09-12T06:33:54;8.05;;;4.40;;
30173;SDS011;16985;50.814;8.530;2022-09-12T06:36:25;5.78;;;4.57;;
30173;SDS011;16985;50.814;8.530;2022-09-12T06:39:00;6.55;;;4.35;;
30173;SDS011;16985;50.814;8.530;2022-09-12T06:41:29;5.35;;;4.32;;
30173;SDS011;16985;50.814;8.530;2022-09-12T06:43:56;7.03;;;4.25;;
30173;SDS011;16985;50.814;8.530;2022-09-12T06:46:23;4.15;;;3.50;;
30173;SDS011;16985;50.814;8.530;2022-09-12T06:48:49;5.20;;;3.75;;
30173;SDS011;16985;50.814;8.530;2022-09-12T06:51:17;4.82;;;4.28;;
30173;SDS011;16985;50.814;8.530;2022-09-12T06:53:47;5.68;;;4.32;;
30173;SDS011;16985;50.814;8.530;2022-09-12T06:56:20;8.02;;;4.93;;
30173;SDS011;16985;50.814;8.530;2022-09-12T06:58:48;5.75;;;4.35;;
30173;SDS011;16985;50.814;8.530;2022-09-12T07:01:19;6.63;;;4.47;;
30173;SDS011;16985;50.814;8.530;2022-09-12T07:03:48;7.22;;;4.20;;
30173;SDS011;16985;50.814;8.530;2022-09-12T07:06:17;4.63;;;3.50;;
30173;SDS011;16985;50.814;8.530;2022-09-12T07:08:45;6.90;;;4.82;;
30173;SDS011;16985;50.814;8.530;2022-09-12T07:11:13;5.57;;;4.60;;
30173;SDS011;16985;50.814;8.530;2022-09-12T07:13:45;5.57;;;4.28;;
30173;SDS011;16985;50.814;8.530;2022-09-12T07:16:17;6.13;;;4.45;;
30173;SDS011;16985;50.814;8.530;2022-09-12T07:18:43;5.85;;;5.03;;
30173;SDS011;16985;50.814;8.530;2022-09-12T07:21:13;8.98;;;4.15;;
30173;SDS011;16985;50.814;8.530;2022-09-12T07:23:40;6.95;;;4.93;;
30173;SDS011;16985;50.814;8.530;2022-09-12T07:26:07;5.57;;;4.93;;
30173;SDS011;16985;50.814;8.530;2022-09-12T07:28:38;6.07;;;4.72;;
30173;SDS011;16985;50.814;8.530;2022-09-12T07:31:08;7.13;;;5.22;;
30173;SDS011;16985;50.814;8.530;2022-09-12T07:33:39;7.10;;;5.03;;
30173;SDS011;16985;50.814;8.530;2022-09-12T07:36:07;11.23;;;5.63;;
30173;SDS011;16985;50.814;8.530;2022-09-12T07:38:37;7.95;;;5.70;;
30173;SDS011;16985;50.814;8.530;2022-09-12T07:41:13;8.07;;;6.05;;
30173;SDS011;16985;50.814;8.530;2022-09-12T07:43:42;7.78;;;5.72;;
30173;SDS011;16985;50.814;8.530;2022-09-12T07:46:07;8.40;;;6.10;;
30173;SDS011;16985;50.814;8.530;2022-09-12T07:48:34;8.68;;;6.50;;
30173;SDS011;16985;50.814;8.530;2022-09-12T07:51:01;6.80;;;5.28;;
30173;SDS011;16985;50.814;8.530;2022-09-12T07:53:33;12.15;;;7.35;;
30173;SDS011;16985;50.814;8.530;2022-09-12T07:56:01;7.20;;;5.80;;
30173;SDS011;16985;50.814;8.530;2022-09-12T07:58:30;12.43;;;7.15;;
30173;SDS011;16985;50.814;8.530;2022-09-12T08:01:08;9.43;;;7.03;;
30173;SDS011;16985;50.814;8.530;2022-09-12T08:03:43;16.13;;;8.00;;
30173;SDS011;16985;50.814;8.530;2022-09-12T08:06:13;11.40;;;7.57;;
30173;SDS011;16985;50.814;8.530;2022-09-12T08:08:44;11.38;;;8.68;;
30173;SDS011;16985;50.814;8.530;2022-09-12T08:11:12;15.65;;;10.27;;
30173;SDS011;16985;50.814;8.530;2022-09-12T08:13:41;17.08;;;10.15;;
30173;SDS011;16985;50.814;8.530;2022-09-12T08:16:09;11.82;;;8.75;;
30173;SDS011;16985;50.814;8.530;2022-09-12T08:18:37;12.57;;;8.65;;
30173;SDS011;16985;50.814;8.530;2022-09-12T08:21:08;16.90;;;9.73;;
30173;SDS011;16985;50.814;8.530;2022-09-12T08:23:53;14.13;;;9.23;;
30173;SDS011;16985;50.814;8.530;2022-09-12T08:26:22;13.82;;;8.88;;
30173;SDS011;16985;50.814;8.530;2022-09-12T08:28:49;16.30;;;9.90;;
30173;SDS011;16985;50.814;8.530;2022-09-12T08:31:16;13.38;;;8.93;;
30173;SDS011;16985;50.814;8.530;2022-09-12T08:33:44;12.60;;;8.00;;
30173;SDS011;16985;50.814;8.530;2022-09-12T08:36:11;11.98;;;9.18;;
30173;SDS011;16985;50.814;8.530;2022-09-12T08:38:41;13.25;;;9.90;;
30173;SDS011;16985;50.814;8.530;2022-09-12T08:41:28;12.27;;;8.73;;
30173;SDS011;16985;50.814;8.530;2022-09-12T08:52:32;11.52;;;8.57;;
30173;SDS011;16985;50.814;8.530;2022-09-12T08:55:25;10.82;;;7.88;;
30173;SDS011;16985;50.814;8.530;2022-09-12T08:58:15;11.85;;;8.43;;
30173;SDS011;16985;50.814;8.530;2022-09-12T09:09:19;10.20;;;8.13;;
30173;SDS011;16985;50.814;8.530;2022-09-12T09:15:20;14.23;;;9.07;;
30173;SDS011;16985;50.814;8.530;2022-09-12T09:20:55;11.65;;;7.50;;
30173;SDS011;16985;50.814;8.530;2022-09-12T09:23:35;11.18;;;7.75;;
30173;SDS011;16985;50.814;8.530;2022-09-12T09:26:13;11.45;;;8.15;;
30173;SDS011;16985;50.814;8.530;2022-09-12T09:29:02;11.45;;;8.20;;
30173;SDS011;16985;50.814;8.530;2022-09-12T09:31:37;11.57;;;7.45;;
30173;SDS011;16985;50.814;8.530;2022-09-12T09:34:14;11.90;;;8.23;;
30173;SDS011;16985;50.814;8.530;2022-09-12T09:36:50;11.73;;;7.95;;
30173;SDS011;16985;50.814;8.530;2022-09-12T09:39:33;10.43;;;7.78;;
30173;SDS011;16985;50.814;8.530;2022-09-12T09:42:31;11.00;;;7.75;;
30173;SDS011;16985;50.814;8.530;2022-09-12T09:45:12;11.13;;;7.63;;
30173;SDS011;16985;50.814;8.530;2022-09-12T09:47:45;9.93;;;7.25;;
30173;SDS011;16985;50.814;8.530;2022-09-12T09:50:17;10.35;;;8.00;;
30173;SDS011;16985;50.814;8.530;2022-09-12T09:52:43;10.38;;;7.57;;
30173;SDS011;16985;50.814;8.530;2022-09-12T09:55:15;9.52;;;7.43;;
30173;SDS011;16985;50.814;8.530;2022-09-12T09:57:46;8.75;;;6.68;;
30173;SDS011;16985;50.814;8.530;2022-09-12T10:00:28;9.35;;;6.90;;
30173;SDS011;16985;50.814;8.530;2022-09-12T10:05:32;9.35;;;7.15;;
30173;SDS011;16985;50.814;8.530;2022-09-12T10:10:54;9.27;;;6.50;;
30173;SDS011;16985;50.814;8.530;2022-09-12T10:13:33;8.45;;;7.10;;
30173;SDS011;16985;50.814;8.530;2022-09-12T10:16:23;10.85;;;7.10;;
30173;SDS011;16985;50.814;8.530;2022-09-12T10:18:55;8.70;;;6.50;;
30173;SDS011;16985;50.814;8.530;2022-09-12T10:26:46;9.57;;;6.53;;
30173;SDS011;16985;50.814;8.530;2022-09-12T10:29:19;9.13;;;6.43;;
30173;SDS011;16985;50.814;8.530;2022-09-12T10:32:02;10.90;;;6.93;;
30173;SDS011;16985;50.814;8.530;2022-09-12T10:34:42;8.18;;;6.72;;
30173;SDS011;16985;50.814;8.530;2022-09-12T10:39:51;8.18;;;6.07;;
30173;SDS011;16985;50.814;8.530;2022-09-12T10:45:30;10.30;;;7.57;;
30173;SDS011;16985;50.814;8.530;2022-09-12T10:48:00;9.05;;;6.45;;
30173;SDS011;16985;50.814;8.530;2022-09-12T10:50:47;9.20;;;7.20;;
30173;SDS011;16985;50.814;8.530;2022-09-12T10:58:37;9.18;;;6.85;;
30173;SDS011;16985;50.814;8.530;2022-09-12T11:01:59;9.02;;;6.68;;
30173;SDS011;16985;50.814;8.530;2022-09-12T11:13:04;9.43;;;6.55;;
30173;SDS011;16985;50.814;8.530;2022-09-12T11:30:11;7.55;;;5.45;;
30173;SDS011;16985;50.814;8.530;2022-09-12T11:35:48;7.45;;;4.80;;
30173;SDS011;16985;50.814;8.530;2022-09-12T11:41:28;7.80;;;5.72;;
30173;SDS011;16985;50.814;8.530;2022-09-12T11:44:41;7.05;;;5.45;;
30173;SDS011;16985;50.814;8.530;2022-09-12T11:47:04;7.60;;;5.15;;
30173;SDS011;16985;50.814;8.530;2022-09-12T11:49:38;9.80;;;6.25;;
30173;SDS011;16985;50.814;8.530;2022-09-12T11:52:18;6.68;;;4.85;;
30173;SDS011;16985;50.814;8.530;2022-09-12T11:57:41;7.97;;;5.47;;
30173;SDS011;16985;50.814;8.530;2022-09-12T12:05:54;6.50;;;5.25;;
30173;SDS011;16985;50.814;8.530;2022-09-12T12:08:43;7.40;;;5.15;;
30173;SDS011;16985;50.814;8.530;2022-09-12T12:11:12;7.18;;;4.72;;
30173;SDS011;16985;50.814;8.530;2022-09-12T12:14:22;7.38;;;5.78;;
30173;SDS011;16985;50.814;8.530;2022-09-12T12:17:02;9.25;;;5.07;;
30173;SDS011;16985;50.814;8.530;2022-09-12T12:19:32;8.18;;;5.45;;
30173;SDS011;16985;50.814;8.530;2022-09-12T12:22:16;7.00;;;4.90;;
30173;SDS011;16985;50.814;8.530;2022-09-12T12:25:01;5.38;;;4.88;;
30173;SDS011;16985;50.814;8.530;2022-09-12T12:27:49;8.63;;;4.45;;
30173;SDS011;16985;50.814;8.530;2022-09-12T12:36:07;7.70;;;4.40;;
30173;SDS011;16985;50.814;8.530;2022-09-12T12:43:43;8.95;;;5.40;;
30173;SDS011;16985;50.814;8.530;2022-09-12T12:46:21;5.72;;;4.70;;
30173;SDS011;16985;50.814;8.530;2022-09-12T12:49:02;5.90;;;4.03;;
30173;SDS011;16985;50.814;8.530;2022-09-12T12:51:36;4.72;;;4.05;;
30173;SDS011;16985;50.814;8.530;2022-09-12T12:57:14;6.28;;;4.65;;
30173;SDS011;16985;50.814;8.530;2022-09-12T13:00:02;7.53;;;4.40;;
30173;SDS011;16985;50.814;8.530;2022-09-12T13:05:25;6.57;;;3.97;;
30173;SDS011;16985;50.814;8.530;2022-09-12T13:08:54;5.45;;;3.70;;
30173;SDS011;16985;50.814;8.530;2022-09-12T13:10:55;4.40;;;3.13;;
30173;SDS011;16985;50.814;8.530;2022-09-12T13:13:23;5.15;;;3.40;;
30173;SDS011;16985;50.814;8.530;2022-09-12T13:16:28;4.50;;;4.03;;
30173;SDS011;16985;50.814;8.530;2022-09-12T13:19:19;5.43;;;3.83;;
30173;SDS011;16985;50.814;8.530;2022-09-12T13:21:54;5.45;;;3.67;;
30173;SDS011;16985;50.814;8.530;2022-09-12T13:24:21;5.07;;;3.97;;
30173;SDS011;16985;50.814;8.530;2022-09-12T13:26:48;3.33;;;3.03;;
30173;SDS011;16985;50.814;8.530;2022-09-12T13:29:21;6.07;;;3.78;;
30173;SDS011;16985;50.814;8.530;2022-09-12T13:31:53;4.20;;;3.50;;
30173;SDS011;16985;50.814;8.530;2022-09-12T13:35:10;5.82;;;3.83;;
30173;SDS011;16985;50.814;8.530;2022-09-12T13:40:28;4.55;;;3.53;;
30173;SDS011;16985;50.814;8.530;2022-09-12T13:43:20;5.18;;;3.20;;
30173;SDS011;16985;50.814;8.530;2022-09-12T13:46:01;5.95;;;3.40;;
30173;SDS011;16985;50.814;8.530;2022-09-12T13:48:27;4.07;;;3.15;;
30173;SDS011;16985;50.814;8.530;2022-09-12T13:50:53;4.22;;;2.95;;
30173;SDS011;16985;50.814;8.530;2022-09-12T13:53:24;5.15;;;3.45;;
30173;SDS011;16985;50.814;8.530;2022-09-12T13:56:04;4.88;;;3.70;;
30173;SDS011;16985;50.814;8.530;2022-09-12T13:58:31;3.90;;;2.97;;
30173;SDS011;16985;50.814;8.530;2022-09-12T14:01:13;3.72;;;3.10;;
30173;SDS011;16985;50.814;8.530;2022-09-12T14:03:41;8.18;;;5.07;;
30173;SDS011;16985;50.814;8.530;2022-09-12T14:06:49;6.07;;;4.70;;
30173;SDS011;16985;50.814;8.530;2022-09-12T14:09:23;6.60;;;4.35;;
30173;SDS011;16985;50.814;8.530;2022-09-12T14:11:54;6.07;;;4.03;;
30173;SDS011;16985;50.814;8.530;2022-09-12T14:14:28;4.22;;;3.40;;
30173;SDS011;16985;50.814;8.530;2022-09-12T14:16:57;5.75;;;3.83;;
30173;SDS011;16985;50.814;8.530;2022-09-12T14:19:24;4.90;;;3.55;;
30173;SDS011;16985;50.814;8.530;2022-09-12T14:21:52;4.13;;;3.03;;
30173;SDS011;16985;50.814;8.530;2022-09-12T14:24:18;3.65;;;2.78;;
30173;SDS011;16985;50.814;8.530;2022-09-12T14:26:47;5.57;;;2.55;;
30173;SDS011;16985;50.814;8.530;2022-09-12T14:29:17;5.78;;;2.78;;
30173;SDS011;16985;50.814;8.530;2022-09-12T14:31:43;3.57;;;3.00;;
30173;SDS011;16985;50.814;8.530;2022-09-12T14:34:13;3.30;;;3.00;;
30173;SDS011;16985;50.814;8.530;2022-09-12T14:39:32;4.72;;;3.00;;
30173;SDS011;16985;50.814;8.530;2022-09-12T14:42:05;7.22;;;3.38;;
30173;SDS011;16985;50.814;8.530;2022-09-12T14:44:42;3.15;;;2.65;;
30173;SDS011;16985;50.814;8.530;2022-09-12T14:47:27;6.35;;;3.67;;
30173;SDS011;16985;50.814;8.530;2022-09-12T14:50:00;4.03;;;3.08;;
30173;SDS011;16985;50.814;8.530;2022-09-12T14:52:28;8.45;;;3.40;;
30173;SDS011;16985;50.814;8.530;2022-09-12T14:58:10;4.10;;;2.92;;
30173;SDS011;16985;50.814;8.530;2022-09-12T15:00:54;4.55;;;3.20;;
30173;SDS011;16985;50.814;8.530;2022-09-12T15:03:33;3.95;;;3.38;;
30173;SDS011;16985;50.814;8.530;2022-09-12T15:06:03;3.95;;;3.40;;
30173;SDS011;16985;50.814;8.530;2022-09-12T15:08:31;6.75;;;3.70;;
30173;SDS011;16985;50.814;8.530;2022-09-12T15:10:57;4.97;;;3.20;;
30173;SDS011;16985;50.814;8.530;2022-09-12T15:13:25;4.25;;;3.15;;
30173;SDS011;16985;50.814;8.530;2022-09-12T15:15:53;4.25;;;3.83;;
30173;SDS011;16985;50.814;8.530;2022-09-12T15:18:22;4.25;;;3.50;;
30173;SDS011;16985;50.814;8.530;2022-09-12T15:20:57;5.80;;;3.05;;
30173;SDS011;16985;50.814;8.530;2022-09-12T15:23:49;5.88;;;3.80;;
30173;SDS011;16985;50.814;8.530;2022-09-12T15:26:21;6.53;;;4.03;;
30173;SDS011;16985;50.814;8.530;2022-09-12T15:28:51;6.63;;;4.20;;
30173;SDS011;16985;50.814;8.530;2022-09-12T15:31:25;4.68;;;3.92;;
30173;SDS011;16985;50.814;8.530;2022-09-12T15:33:55;4.93;;;3.75;;
30173;SDS011;16985;50.814;8.530;2022-09-12T15:36:24;4.65;;;3.75;;
30173;SDS011;16985;50.814;8.530;2022-09-12T15:38:51;5.18;;;3.85;;
30173;SDS011;16985;50.814;8.530;2022-09-12T15:41:18;6.20;;;3.83;;
30173;SDS011;16985;50.814;8.530;2022-09-12T15:43:50;6.47;;;3.67;;
30173;SDS011;16985;50.814;8.530;2022-09-12T15:46:16;5.15;;;3.58;;
30173;SDS011;16985;50.814;8.530;2022-09-12T15:48:43;4.18;;;3.17;;
30173;SDS011;16985;50.814;8.530;2022-09-12T15:51:11;5.95;;;3.30;;
30173;SDS011;16985;50.814;8.530;2022-09-12T15:53:38;10.43;;;3.50;;
30173;SDS011;16985;50.814;8.530;2022-09-12T15:56:04;5.72;;;3.63;;
30173;SDS011;16985;50.814;8.530;2022-09-12T15:58:30;6.13;;;2.90;;
30173;SDS011;16985;50.814;8.530;2022-09-12T16:00:56;5.88;;;3.45;;
30173;SDS011;16985;50.814;8.530;2022-09-12T16:03:26;4.18;;;3.33;;
30173;SDS011;16985;50.814;8.530;2022-09-12T16:06:00;8.57;;;3.22;;
30173;SDS011;16985;50.814;8.530;2022-09-12T16:08:28;5.75;;;3.47;;
30173;SDS011;16985;50.814;8.530;2022-09-12T16:10:57;4.55;;;3.65;;
30173;SDS011;16985;50.814;8.530;2022-09-12T16:13:31;3.97;;;3.28;;
30173;SDS011;16985;50.814;8.530;2022-09-12T16:15:57;4.38;;;3.28;;
30173;SDS011;16985;50.814;8.530;2022-09-12T16:18:25;5.05;;;3.50;;
30173;SDS011;16985;50.814;8.530;2022-09-12T16:20:55;5.25;;;3.75;;
30173;SDS011;16985;50.814;8.530;2022-09-12T16:23:21;4.90;;;3.30;;
30173;SDS011;16985;50.814;8.530;2022-09-12T16:25:55;3.63;;;3.25;;
30173;SDS011;16985;50.814;8.530;2022-09-12T16:28:29;4.63;;;3.35;;
30173;SDS011;16985;50.814;8.530;2022-09-12T16:31:00;7.18;;;3.47;;
30173;SDS011;16985;50.814;8.530;2022-09-12T16:33:29;5.38;;;2.72;;
30173;SDS011;16985;50.814;8.530;2022-09-12T16:36:06;3.55;;;3.10;;
30173;SDS011;16985;50.814;8.530;2022-09-12T16:38:39;4.22;;;3.20;;
30173;SDS011;16985;50.814;8.530;2022-09-12T16:41:13;5.43;;;3.20;;
30173;SDS011;16985;50.814;8.530;2022-09-12T16:43:40;4.47;;;3.30;;
30173;SDS011;16985;50.814;8.530;2022-09-12T16:46:09;3.40;;;2.67;;
30173;SDS011;16985;50.814;8.530;2022-09-12T16:48:43;4.93;;;3.30;;
30173;SDS011;16985;50.814;8.530;2022-09-12T16:51:13;3.78;;;3.17;;
30173;SDS011;16985;50.814;8.530;2022-09-12T16:53:41;3.00;;;2.70;;
30173;SDS011;16985;50.814;8.530;2022-09-12T16:56:07;3.97;;;3.33;;
30173;SDS011;16985;50.814;8.530;2022-09-12T16:58:35;4.97;;;3.13;;
30173;SDS011;16985;50.814;8.530;2022-09-12T17:01:06;7.03;;;2.97;;
30173;SDS011;16985;50.814;8.530;2022-09-12T17:03:38;6.97;;;3.30;;
30173;SDS011;16985;50.814;8.530;2022-09-12T17:06:16;5.07;;;3.08;;
30173;SDS011;16985;50.814;8.530;2022-09-12T17:08:44;3.63;;;2.90;;
30173;SDS011;16985;50.814;8.530;2022-09-12T17:11:14;4.43;;;3.58;;
30173;SDS011;16985;50.814;8.530;2022-09-12T17:13:46;3.92;;;2.85;;
30173;SDS011;16985;50.814;8.530;2022-09-12T17:16:14;6.10;;;3.53;;
30173;SDS011;16985;50.814;8.530;2022-09-12T17:18:40;4.30;;;3.10;;
30173;SDS011;16985;50.814;8.530;2022-09-12T17:21:07;4.85;;;2.97;;
30173;SDS011;16985;50.814;8.530;2022-09-12T17:23:34;5.13;;;3.40;;
30173;SDS011;16985;50.814;8.530;2022-09-12T17:26:00;5.22;;;3.55;;
30173;SDS011;16985;50.814;8.530;2022-09-12T17:28:27;4.95;;;3.97;;
30173;SDS011;16985;50.814;8.530;2022-09-12T17:30:53;5.43;;;3.30;;
30173;SDS011;16985;50.814;8.530;2022-09-12T17:35:46;4.20;;;3.38;;
30173;SDS011;16985;50.814;8.530;2022-09-12T17:38:12;3.22;;;2.80;;
30173;SDS011;16985;50.814;8.530;2022-09-12T17:40:39;4.60;;;3.20;;
30173;SDS011;16985;50.814;8.530;2022-09-12T17:43:05;6.30;;;2.95;;
30173;SDS011;16985;50.814;8.530;2022-09-12T17:45:31;4.18;;;3.10;;
30173;SDS011;16985;50.814;8.530;2022-09-12T17:47:57;6.38;;;3.33;;
30173;SDS011;16985;50.814;8.530;2022-09-12T17:50:23;3.40;;;3.03;;
30173;SDS011;16985;50.814;8.530;2022-09-12T17:52:49;5.10;;;3.28;;
30173;SDS011;16985;50.814;8.530;2022-09-12T17:55:15;4.68;;;4.18;;
30173;SDS011;16985;50.814;8.530;2022-09-12T17:57:41;5.68;;;4.10;;
30173;SDS011;16985;50.814;8.530;2022-09-12T18:00:09;6.85;;;3.63;;
30173;SDS011;16985;50.814;8.530;2022-09-12T18:02:38;4.40;;;3.25;;